Time;durP1;ratioP1;P1;durP2;ratioP2;P2;SDS_P1;SDS_P2;PMS_P1;PMS_P2;Temp;Humidity;BMP_temperature;BMP_pressure;BME280_temperature;BME280_humidity;BME280_pressure;Samples;Min_cycle;Max_cycle;Signal;HPM_P1;HPM_P2
2022/09/28 00:00:37;;;;;;;;;;;;;;;9.46;100.00;98309.00;5153343;27;20386;-51
2022/09/28 00:03:04;;;;;;;;;;;;;;;9.30;100.00;98311.22;5154183;27;19927;-54
2022/09/28 00:05:31;;;;;;;;;;;;;;;9.38;100.00;98310.88;5154222;27;19923;-54
2022/09/28 00:07:57;;;;;;;;;;;;;;;9.52;100.00;98323.13;5154198;27;19945;-51
2022/09/28 00:10:23;;;;;;;;;;;;;;;9.37;100.00;98320.25;5153815;27;19923;-53
2022/09/28 00:12:49;;;;;;;;;;;;;;;9.01;100.00;98304.69;5153985;27;19927;-52
2022/09/28 00:15:15;;;;;;;;;;;;;;;9.03;100.00;98277.72;5153892;27;19923;-52
2022/09/28 00:17:43;;;;;;;;;;;;;;;8.97;100.00;98263.63;5153881;27;20444;-52
2022/09/28 00:20:10;;;;;;;;;;;;;;;8.85;100.00;98253.75;5153751;27;19926;-51
2022/09/28 00:22:36;;;;;;;;;;;;;;;8.67;100.00;98236.41;5153693;27;20013;-51
2022/09/28 00:25:02;;;;;;;;;;;;;;;8.80;100.00;98206.84;5153915;27;19930;-51
2022/09/28 00:27:28;;;;;;;;;;;;;;;8.57;100.00;98191.41;5153658;27;19923;-51
2022/09/28 00:29:54;;;;;;;;;;;;;;;8.51;100.00;98173.78;5153763;27;19930;-53
2022/09/28 00:32:23;;;;;;;;;;;;;;;8.40;100.00;98153.78;5153702;27;19923;-54
2022/09/28 00:34:49;;;;;;;;;;;;;;;8.53;100.00;98124.22;5153684;27;19927;-50
2022/09/28 00:37:17;;;;;;;;;;;;;;;8.60;100.00;98107.94;5153734;27;19923;-52
2022/09/28 00:39:44;;;;;;;;;;;;;;;8.49;100.00;98116.00;5153597;27;19945;-51
2022/09/28 00:42:11;;;;;;;;;;;;;;;8.29;100.00;98092.75;5153594;27;20378;-51
2022/09/28 00:44:38;;;;;;;;;;;;;;;8.51;100.00;98088.31;5153507;27;19974;-52
2022/09/28 00:47:14;;;;;;;;;;;;;;;8.49;100.00;98086.72;5153432;27;19923;-50
2022/09/28 00:49:43;;;;;;;;;;;;;;;8.43;100.00;98093.72;5153277;27;19931;-50
2022/09/28 00:52:11;;;;;;;;;;;;;;;8.37;100.00;98087.00;5153360;27;20590;-50
2022/09/28 00:54:39;;;;;;;;;;;;;;;8.35;100.00;98086.59;5153162;27;19966;-52
2022/09/28 00:57:04;;;;;;;;;;;;;;;8.33;100.00;98099.84;5153425;27;19923;-50
2022/09/28 00:59:31;;;;;;;;;;;;;;;8.30;100.00;98097.06;5153116;27;19923;-51
2022/09/28 01:01:57;;;;;;;;;;;;;;;8.32;100.00;98105.66;5153312;27;20289;-53
2022/09/28 01:04:23;;;;;;;;;;;;;;;8.35;100.00;98097.50;5153110;27;19973;-50
2022/09/28 01:06:50;;;;;;;;;;;;;;;8.13;100.00;98101.19;5153151;27;19942;-53
2022/09/28 01:09:17;;;;;;;;;;;;;;;7.98;100.00;98070.22;5153038;27;19923;-53
2022/09/28 01:11:43;;;;;;;;;;;;;;;8.05;100.00;98034.03;5152187;27;20327;-51
2022/09/28 01:14:11;;;;;;;;;;;;;;;7.79;100.00;98033.00;5152403;27;20389;-53
2022/09/28 01:16:40;;;;;;;;;;;;;;;7.68;100.00;98026.66;5152738;27;19923;-54
2022/09/28 01:19:17;;;;;;;;;;;;;;;7.95;100.00;98014.44;5152783;27;19981;-53
2022/09/28 01:21:49;;;;;;;;;;;;;;;8.16;100.00;98011.16;5152913;27;20445;-51
2022/09/28 01:24:21;;;;;;;;;;;;;;;8.01;100.00;98015.69;5152722;27;19923;-50
2022/09/28 01:26:50;;;;;;;;;;;;;;;7.75;100.00;98026.72;5152683;27;19948;-51
2022/09/28 01:29:19;;;;;;;;;;;;;;;7.84;100.00;98004.59;5152870;27;20003;-52
2022/09/28 01:31:48;;;;;;;;;;;;;;;7.79;100.00;98001.03;5152631;27;19968;-50
2022/09/28 01:34:15;;;;;;;;;;;;;;;7.97;100.00;97995.75;5152507;27;19930;-52
2022/09/28 01:36:45;;;;;;;;;;;;;;;7.94;100.00;97988.31;5152680;27;19973;-51
2022/09/28 01:39:14;;;;;;;;;;;;;;;7.86;100.00;98000.31;5152450;27;19927;-52
2022/09/28 01:41:41;;;;;;;;;;;;;;;7.72;100.00;97986.53;5152570;27;19970;-53
2022/09/28 01:44:10;;;;;;;;;;;;;;;7.70;100.00;97973.28;5152619;27;19923;-54
2022/09/28 01:46:37;;;;;;;;;;;;;;;7.95;100.00;97961.81;5152704;27;20310;-54
2022/09/28 01:49:06;;;;;;;;;;;;;;;8.05;100.00;97985.69;5152388;27;19930;-51
2022/09/28 01:51:35;;;;;;;;;;;;;;;8.16;100.00;97996.69;5152675;27;20398;-50
2022/09/28 01:54:05;;;;;;;;;;;;;;;8.06;100.00;98020.00;5152246;27;19970;-52
2022/09/28 01:56:35;;;;;;;;;;;;;;;8.31;100.00;98035.84;5152420;27;19929;-52
2022/09/28 01:59:06;;;;;;;;;;;;;;;8.45;100.00;98071.50;5152283;27;19958;-51
2022/09/28 02:01:37;;;;;;;;;;;;;;;8.40;100.00;98101.91;5152278;27;20017;-51
2022/09/28 02:04:06;;;;;;;;;;;;;;;8.63;100.00;98135.28;5152321;27;20489;-51
2022/09/28 02:06:36;;;;;;;;;;;;;;;8.77;100.00;98145.53;5152028;27;19972;-53
2022/09/28 02:09:04;;;;;;;;;;;;;;;8.81;100.00;98162.75;5152001;27;20417;-50
2022/09/28 02:11:32;;;;;;;;;;;;;;;8.65;100.00;98189.53;5151998;27;19985;-52
2022/09/28 02:14:00;;;;;;;;;;;;;;;8.86;100.00;98206.16;5151852;27;19929;-52
2022/09/28 02:16:30;;;;;;;;;;;;;;;8.87;100.00;98221.38;5152083;27;19970;-51
2022/09/28 02:18:57;;;;;;;;;;;;;;;9.02;100.00;98241.41;5152078;27;19930;-51
2022/09/28 02:21:26;;;;;;;;;;;;;;;9.08;100.00;98250.84;5151840;27;19923;-51
2022/09/28 02:23:55;;;;;;;;;;;;;;;8.95;100.00;98253.06;5151671;27;20385;-54
2022/09/28 02:26:23;;;;;;;;;;;;;;;9.16;100.00;98248.94;5151993;27;19937;-51
2022/09/28 02:28:49;;;;;;;;;;;;;;;8.77;100.00;98245.88;5151728;27;20366;-52
2022/09/28 02:31:15;;;;;;;;;;;;;;;8.73;100.00;98243.09;5151901;27;19922;-51
2022/09/28 02:33:42;;;;;;;;;;;;;;;8.58;100.00;98214.84;5151753;27;19923;-51
2022/09/28 02:36:10;;;;;;;;;;;;;;;8.78;100.00;98212.69;5151760;27;19923;-53
2022/09/28 02:38:36;;;;;;;;;;;;;;;8.81;100.00;98222.88;5151872;27;19923;-50
2022/09/28 02:41:03;;;;;;;;;;;;;;;8.95;100.00;98228.47;5151494;27;19923;-51
2022/09/28 02:43:33;;;;;;;;;;;;;;;8.62;100.00;98244.91;5151767;27;19992;-53
2022/09/28 02:46:05;;;;;;;;;;;;;;;8.62;100.00;98212.91;5151891;27;19970;-51
2022/09/28 02:48:40;;;;;;;;;;;;;;;8.51;100.00;98209.28;5152038;27;19975;-51
2022/09/28 02:51:12;;;;;;;;;;;;;;;8.47;100.00;98189.34;5151673;27;19930;-52
2022/09/28 02:54:01;;;;;;;;;;;;;;;8.64;100.00;98166.09;5151652;27;19971;-51
2022/09/28 02:56:40;;;;;;;;;;;;;;;8.63;100.00;98165.31;5130416;27;19923;-53
2022/09/28 02:59:08;;;;;;;;;;;;;;;8.54;100.00;98177.72;5151634;27;20313;-54
2022/09/28 03:01:36;;;;;;;;;;;;;;;8.74;100.00;98179.09;5151481;27;19923;-51
2022/09/28 03:04:08;;;;;;;;;;;;;;;8.93;100.00;98197.22;5151347;27;19931;-51
2022/09/28 03:06:40;;;;;;;;;;;;;;;8.78;100.00;98201.75;5151359;27;20010;-52
2022/09/28 03:09:12;;;;;;;;;;;;;;;8.81;100.00;98211.16;5151358;27;19946;-51
2022/09/28 03:11:42;;;;;;;;;;;;;;;8.54;100.00;98215.97;5151299;27;20014;-51
2022/09/28 03:14:08;;;;;;;;;;;;;;;8.74;100.00;98203.69;5151162;27;19980;-52
2022/09/28 03:16:34;;;;;;;;;;;;;;;9.01;100.00;98211.72;5151493;27;19923;-54
2022/09/28 03:19:00;;;;;;;;;;;;;;;9.20;100.00;98227.91;5151388;27;20282;-54
2022/09/28 03:21:26;;;;;;;;;;;;;;;9.17;100.00;98236.88;5151197;27;19927;-54
2022/09/28 03:23:52;;;;;;;;;;;;;;;8.95;100.00;98228.47;5151260;27;19927;-54
2022/09/28 03:26:18;;;;;;;;;;;;;;;8.89;100.00;98215.50;5151262;27;20401;-52
2022/09/28 03:28:45;;;;;;;;;;;;;;;9.07;100.00;98212.97;5151099;27;19923;-51
2022/09/28 03:31:11;;;;;;;;;;;;;;;8.74;100.00;98219.28;5151063;27;19969;-50
2022/09/28 03:33:37;;;;;;;;;;;;;;;8.62;100.00;98191.06;5151268;27;19923;-52
2022/09/28 03:36:03;;;;;;;;;;;;;;;8.81;100.00;98197.50;5152339;27;19967;-54
2022/09/28 03:38:29;;;;;;;;;;;;;;;8.29;100.00;98202.78;5155026;27;20009;-53
2022/09/28 03:40:55;;;;;;;;;;;;;;;8.68;100.00;98177.84;5154456;27;20297;-50
2022/09/28 03:43:21;;;;;;;;;;;;;;;8.78;100.00;98184.56;5154597;27;19923;-54
2022/09/28 03:45:54;;;;;;;;;;;;;;;8.89;100.00;98186.22;5154361;27;20433;-54
2022/09/28 03:48:21;;;;;;;;;;;;;;;8.68;100.00;98186.03;5154322;27;19977;-54
2022/09/28 03:50:47;;;;;;;;;;;;;;;8.82;100.00;98163.53;5154666;27;19922;-51
2022/09/28 03:53:13;;;;;;;;;;;;;;;8.65;100.00;98154.00;5154639;27;20344;-52
2022/09/28 03:55:39;;;;;;;;;;;;;;;8.84;100.00;98163.94;5154296;27;19985;-52
2022/09/28 03:58:05;;;;;;;;;;;;;;;8.88;100.00;98172.94;5153978;27;19927;-52
2022/09/28 04:00:31;;;;;;;;;;;;;;;8.71;100.00;98175.16;5154209;27;19930;-53
2022/09/28 04:02:57;;;;;;;;;;;;;;;8.49;100.00;98154.25;5154082;27;19923;-51
2022/09/28 04:05:23;;;;;;;;;;;;;;;8.27;100.00;98136.06;5153935;27;19978;-54
2022/09/28 04:07:49;;;;;;;;;;;;;;;8.48;100.00;98122.63;5154220;27;19927;-54
2022/09/28 04:10:15;;;;;;;;;;;;;;;8.87;100.00;98122.19;5153935;27;19923;-54
2022/09/28 04:12:41;;;;;;;;;;;;;;;8.12;100.00;98124.19;5153979;27;20335;-54
2022/09/28 04:15:07;;;;;;;;;;;;;;;8.60;100.00;98099.72;5154051;27;19923;-51
2022/09/28 04:17:33;;;;;;;;;;;;;;;8.40;100.00;98124.53;5153857;27;19930;-53
2022/09/28 04:20:02;;;;;;;;;;;;;;;8.32;100.00;98108.41;5153917;27;19926;-52
2022/09/28 04:22:28;;;;;;;;;;;;;;;8.44;100.00;98099.97;5153713;27;19974;-54
2022/09/28 04:24:54;;;;;;;;;;;;;;;8.51;100.00;98118.38;5153772;27;20013;-51
2022/09/28 04:30:04;;;;;;;;;;;;;;;8.47;100.00;98137.47;5153817;27;19968;-53
2022/09/28 04:32:30;;;;;;;;;;;;;;;8.32;100.00;98122.06;5153559;27;19929;-52
2022/09/28 04:34:56;;;;;;;;;;;;;;;8.35;100.00;98113.91;5153401;27;19923;-54
2022/09/28 04:37:23;;;;;;;;;;;;;;;8.01;100.00;98094.06;5153673;27;19922;-52
2022/09/28 04:39:49;;;;;;;;;;;;;;;8.28;100.00;98070.13;5153692;27;19930;-51
2022/09/28 04:42:15;;;;;;;;;;;;;;;8.45;100.00;98077.72;5153633;27;20342;-53
2022/09/28 04:44:41;;;;;;;;;;;;;;;8.35;100.00;98078.41;5153433;27;19927;-53
2022/09/28 04:47:07;;;;;;;;;;;;;;;8.41;100.00;98096.03;5153660;27;19923;-51
2022/09/28 04:49:34;;;;;;;;;;;;;;;8.16;100.00;98095.78;5153516;27;20290;-54
2022/09/28 04:52:00;;;;;;;;;;;;;;;8.53;100.00;98092.25;5153817;27;19931;-54
2022/09/28 04:54:26;;;;;;;;;;;;;;;8.35;100.00;98092.03;5153190;27;19926;-53
2022/09/28 04:56:53;;;;;;;;;;;;;;;7.98;100.00;98089.34;5153003;27;19974;-53
2022/09/28 04:59:18;;;;;;;;;;;;;;;8.23;100.00;98056.81;5152869;27;19923;-54
2022/09/28 05:01:44;;;;;;;;;;;;;;;8.37;100.00;98048.00;5152902;27;19927;-54
2022/09/28 05:04:10;;;;;;;;;;;;;;;8.25;100.00;98062.69;5153252;27;19922;-65
2022/09/28 05:06:36;;;;;;;;;;;;;;;8.49;100.00;98066.84;5152968;27;20027;-59
2022/09/28 05:09:02;;;;;;;;;;;;;;;8.61;100.00;98073.97;5152987;27;19922;-60
2022/09/28 05:11:29;;;;;;;;;;;;;;;8.75;100.00;98095.94;5152937;27;20022;-58
2022/09/28 05:13:55;;;;;;;;;;;;;;;8.61;100.00;98123.16;5153038;27;19944;-68
2022/09/28 05:16:21;;;;;;;;;;;;;;;8.87;100.00;98127.66;5152794;27;19923;-65
2022/09/28 05:18:47;;;;;;;;;;;;;;;9.11;100.00;98138.00;5152915;27;19930;-67
2022/09/28 05:21:14;;;;;;;;;;;;;;;8.95;100.00;98145.66;5152825;27;19923;-67
2022/09/28 05:23:45;;;;;;;;;;;;;;;8.77;100.00;98147.50;5152759;27;19923;-67
2022/09/28 05:26:10;;;;;;;;;;;;;;;8.81;100.00;98134.63;5152725;27;19923;-68
2022/09/28 05:28:37;;;;;;;;;;;;;;;9.21;100.00;98152.91;5152514;27;19983;-68
2022/09/28 05:31:04;;;;;;;;;;;;;;;8.88;100.00;98170.22;5152857;27;19922;-67
2022/09/28 05:33:30;;;;;;;;;;;;;;;9.17;100.00;98157.56;5152765;27;19927;-65
2022/09/28 05:35:56;;;;;;;;;;;;;;;8.97;100.00;98167.19;5152640;27;19974;-66
2022/09/28 05:38:22;;;;;;;;;;;;;;;9.13;100.00;98171.22;5152536;27;19984;-67
2022/09/28 05:40:48;;;;;;;;;;;;;;;8.70;100.00;98175.53;5152692;27;19923;-68
2022/09/28 05:43:14;;;;;;;;;;;;;;;8.45;100.00;98158.88;5152347;27;19927;-59
2022/09/28 05:45:41;;;;;;;;;;;;;;;8.70;100.00;98142.75;5152580;27;19946;-64
2022/09/28 05:48:07;;;;;;;;;;;;;;;9.16;100.00;98161.44;5152400;27;20331;-63
2022/09/28 05:50:33;;;;;;;;;;;;;;;8.93;100.00;98172.63;5152265;27;19923;-60
2022/09/28 05:53:00;;;;;;;;;;;;;;;8.86;100.00;98170.63;5152240;27;20279;-64
2022/09/28 05:55:26;;;;;;;;;;;;;;;8.83;100.00;98152.22;5152066;27;19950;-65
2022/09/28 05:57:52;;;;;;;;;;;;;;;9.32;100.00;98159.22;5151373;27;20401;-67
2022/09/28 06:00:18;;;;;;;;;;;;;;;8.90;100.00;98174.16;5151760;27;19927;-60
2022/09/28 06:02:44;;;;;;;;;;;;;;;8.97;100.00;98175.38;5150176;27;19969;-66
2022/09/28 06:05:10;;;;;;;;;;;;;;;8.83;100.00;98165.09;5152390;27;19923;-61
2022/09/28 06:07:36;;;;;;;;;;;;;;;8.66;100.00;98155.56;5152368;27;19930;-65
2022/09/28 06:10:02;;;;;;;;;;;;;;;8.90;100.00;98148.78;5152133;27;20302;-63
2022/09/28 06:12:28;;;;;;;;;;;;;;;8.74;100.00;98159.94;5151716;27;19923;-63
2022/09/28 06:14:55;;;;;;;;;;;;;;;8.81;100.00;98146.34;5152022;27;19929;-63
2022/09/28 06:17:21;;;;;;;;;;;;;;;8.60;100.00;98152.41;5152065;27;19972;-64
2022/09/28 06:19:51;;;;;;;;;;;;;;;9.06;100.00;98134.81;5152213;27;20393;-63
2022/09/28 06:22:17;;;;;;;;;;;;;;;8.41;100.00;98130.75;5151796;27;20389;-63
2022/09/28 06:24:42;;;;;;;;;;;;;;;8.47;100.00;98110.16;5151743;27;19922;-62
2022/09/28 06:27:08;;;;;;;;;;;;;;;9.13;100.00;98102.84;5151741;27;19923;-63
2022/09/28 06:29:34;;;;;;;;;;;;;;;9.00;100.00;98137.13;5151830;27;19923;-63
2022/09/28 06:32:00;;;;;;;;;;;;;;;8.93;100.00;98139.81;5151752;27;19923;-62
2022/09/28 06:34:28;;;;;;;;;;;;;;;9.13;100.00;98134.84;5151847;27;20327;-62
2022/09/28 06:36:55;;;;;;;;;;;;;;;8.89;100.00;98144.44;5151725;27;19930;-62
2022/09/28 06:39:21;;;;;;;;;;;;;;;8.89;100.00;98144.44;5151637;27;19958;-62
2022/09/28 06:41:47;;;;;;;;;;;;;;;8.70;100.00;98129.88;5151672;27;20408;-62
2022/09/28 06:44:13;;;;;;;;;;;;;;;8.78;100.00;98129.91;5151693;27;19922;-63
2022/09/28 06:46:39;;;;;;;;;;;;;;;8.64;100.00;98108.72;5151567;27;19923;-62
2022/09/28 06:49:08;;;;;;;;;;;;;;;8.82;100.00;98100.66;5151575;27;19923;-62
2022/09/28 06:51:34;;;;;;;;;;;;;;;8.76;100.00;98116.63;5151323;27;19930;-61
2022/09/28 06:54:01;;;;;;;;;;;;;;;8.73;100.00;98106.47;5151369;27;19974;-63
2022/09/28 06:56:26;;;;;;;;;;;;;;;9.07;100.00;98093.44;5151479;27;20038;-63
2022/09/28 06:58:53;;;;;;;;;;;;;;;8.43;100.00;98092.91;5151123;27;20390;-63
2022/09/28 07:01:19;;;;;;;;;;;;;;;8.67;100.00;98075.19;5151441;27;19923;-63
2022/09/28 07:03:45;;;;;;;;;;;;;;;8.89;100.00;98073.38;5151249;27;20296;-62
2022/09/28 07:06:11;;;;;;;;;;;;;;;8.69;100.00;98076.38;5151334;27;19971;-62
2022/09/28 07:08:37;;;;;;;;;;;;;;;8.84;100.00;98084.69;5151230;27;20385;-63
2022/09/28 07:11:05;;;;;;;;;;;;;;;9.05;100.00;98084.81;5152619;27;19977;-63
2022/09/28 07:13:31;;;;;;;;;;;;;;;8.99;100.00;98094.53;5154796;27;19927;-65
2022/09/28 07:15:58;;;;;;;;;;;;;;;8.75;100.00;98101.41;5154783;27;19923;-64
2022/09/28 07:18:25;;;;;;;;;;;;;;;8.78;100.00;98081.50;5154566;27;19922;-65
2022/09/28 07:20:51;;;;;;;;;;;;;;;8.90;100.00;98058.56;5154810;27;20409;-65
2022/09/28 07:23:17;;;;;;;;;;;;;;;8.73;100.00;98073.69;5154485;27;19923;-63
2022/09/28 07:25:46;;;;;;;;;;;;;;;8.87;100.00;98073.78;5154574;27;19970;-64
2022/09/28 07:28:13;;;;;;;;;;;;;;;8.87;100.00;98079.25;5154718;27;19923;-63
2022/09/28 07:30:39;;;;;;;;;;;;;;;8.94;100.00;98082.03;5154787;27;20001;-63
2022/09/28 07:33:06;;;;;;;;;;;;;;;9.11;100.00;98082.53;5154749;27;19922;-64
2022/09/28 07:35:33;;;;;;;;;;;;;;;9.11;100.00;98098.94;5154327;27;19923;-64
2022/09/28 07:38:00;;;;;;;;;;;;;;;9.15;100.00;98097.78;5154557;27;20366;-64
2022/09/28 07:43:11;;;;;;;;;;;;;;;8.70;100.00;98088.09;5154872;27;19929;-64
2022/09/28 07:45:38;;;;;;;;;;;;;;;9.18;100.00;98074.34;5154406;27;20465;-63
2022/09/28 07:48:04;;;;;;;;;;;;;;;9.08;100.00;98083.28;5154481;27;20703;-63
2022/09/28 07:50:30;;;;;;;;;;;;;;;8.64;100.00;98076.72;5154576;27;19923;-63
2022/09/28 07:52:57;;;;;;;;;;;;;;;8.64;100.00;98043.16;5154272;27;19923;-64
2022/09/28 07:55:23;;;;;;;;;;;;;;;8.47;100.00;98039.13;5154017;27;19966;-63
2022/09/28 07:57:53;;;;;;;;;;;;;;;8.51;100.00;98009.88;5154133;27;19930;-64
2022/09/28 08:00:20;;;;;;;;;;;;;;;8.62;100.00;97999.03;5154466;27;20573;-63
2022/09/28 08:02:47;;;;;;;;;;;;;;;8.61;100.00;97992.78;5154197;27;19973;-64
2022/09/28 08:05:13;;;;;;;;;;;;;;;8.41;100.00;97989.53;5154396;27;19923;-63
2022/09/28 08:07:39;;;;;;;;;;;;;;;8.44;100.00;97975.13;5154107;27;19958;-64
2022/09/28 08:10:05;;;;;;;;;;;;;;;8.44;100.00;97944.28;5154031;27;19923;-64
2022/09/28 08:12:31;;;;;;;;;;;;;;;8.57;100.00;97933.84;5153809;27;19981;-65
2022/09/28 08:14:58;;;;;;;;;;;;;;;8.51;100.00;97916.25;5153918;27;19923;-64
2022/09/28 08:17:24;;;;;;;;;;;;;;;8.37;100.00;97920.41;5153727;27;19923;-63
2022/09/28 08:22:36;;;;;;;;;;;;;;;8.46;100.00;97911.91;5153250;27;20388;-63
2022/09/28 08:25:01;;;;;;;;;;;;;;;8.52;100.00;97923.25;5153825;27;19930;-64
2022/09/28 08:27:27;;;;;;;;;;;;;;;8.40;100.00;97936.09;5154021;27;20293;-63
2022/09/28 08:29:53;;;;;;;;;;;;;;;8.56;100.00;97929.53;5153611;27;20305;-64
2022/09/28 08:32:20;;;;;;;;;;;;;;;8.83;100.00;97922.66;5153880;27;19930;-66
2022/09/28 08:34:46;;;;;;;;;;;;;;;8.87;100.00;97925.41;5153578;27;19923;-63
2022/09/28 08:37:12;;;;;;;;;;;;;;;8.64;100.00;97939.34;5153585;27;19966;-64
2022/09/28 08:39:38;;;;;;;;;;;;;;;8.74;100.00;97924.19;5153351;27;19980;-64
2022/09/28 08:42:11;;;;;;;;;;;;;;;8.58;100.00;97919.00;5153500;27;20365;-62
2022/09/28 08:44:39;;;;;;;;;;;;;;;8.63;100.00;97915.91;5153265;27;19966;-59
2022/09/28 08:48:42;;;;;;;;;;;;;;;8.51;100.00;97929.91;5153493;27;20380;-62
2022/09/28 08:49:55;;;;;;;;;;;;;;;8.76;100.00;97905.44;5153015;27;20394;-60
2022/09/28 08:52:25;;;;;;;;;;;;;;;8.74;100.00;97911.28;5153213;27;20429;-59
2022/09/28 08:54:54;;;;;;;;;;;;;;;8.66;100.00;97915.94;5153466;27;19927;-62
2022/09/28 08:57:24;;;;;;;;;;;;;;;8.65;100.00;97919.03;5153272;27;20038;-59
2022/09/28 08:59:52;;;;;;;;;;;;;;;8.92;100.00;97936.75;5153470;27;19927;-61
2022/09/28 09:02:21;;;;;;;;;;;;;;;8.76;100.00;97932.75;5152984;27;20025;-59
2022/09/28 09:04:48;;;;;;;;;;;;;;;8.73;100.00;97942.53;5153230;27;19923;-60
2022/09/28 09:07:38;;;;;;;;;;;;;;;8.85;100.00;97919.53;5152950;27;20378;-58
2022/09/28 09:10:10;;;;;;;;;;;;;;;8.92;100.00;97931.28;5153156;27;19927;-59
2022/09/28 09:12:42;;;;;;;;;;;;;;;8.67;100.00;97922.97;5152792;27;20395;-58
2022/09/28 09:15:16;;;;;;;;;;;;;;;8.72;100.00;97903.47;5152833;27;19923;-62
2022/09/28 09:17:47;;;;;;;;;;;;;;;8.54;100.00;97893.63;5153235;27;19923;-63
2022/09/28 09:20:18;;;;;;;;;;;;;;;8.32;100.00;97885.25;5152603;27;19926;-61
2022/09/28 09:22:50;;;;;;;;;;;;;;;8.61;100.00;97861.66;5152979;27;19923;-61
2022/09/28 09:25:18;;;;;;;;;;;;;;;8.55;100.00;97859.69;5152693;27;19923;-58
2022/09/28 09:27:54;;;;;;;;;;;;;;;8.83;100.00;97862.53;5152701;27;19923;-58
2022/09/28 09:30:21;;;;;;;;;;;;;;;8.46;100.00;97884.59;5152790;27;20352;-58
2022/09/28 09:33:14;;;;;;;;;;;;;;;8.73;100.00;97863.28;5151769;27;19922;-59
2022/09/28 09:35:50;;;;;;;;;;;;;;;8.79;100.00;97858.22;5152212;27;19922;-58
2022/09/28 09:38:26;;;;;;;;;;;;;;;8.59;100.00;97846.81;5151876;27;19962;-57
2022/09/28 09:40:58;;;;;;;;;;;;;;;8.76;100.00;97845.31;5152394;27;19927;-59
2022/09/28 09:43:34;;;;;;;;;;;;;;;8.71;100.00;97868.34;5152456;27;19970;-58
2022/09/28 09:46:05;;;;;;;;;;;;;;;8.72;100.00;97861.69;5152609;27;19965;-60
2022/09/28 09:48:36;;;;;;;;;;;;;;;8.65;100.00;97851.53;5152592;27;19926;-55
2022/09/28 09:51:04;;;;;;;;;;;;;;;8.95;100.00;97866.88;5152127;27;19977;-60
2022/09/28 09:53:37;;;;;;;;;;;;;;;8.64;100.00;97869.09;5152507;27;19962;-58
2022/09/28 09:56:13;;;;;;;;;;;;;;;8.78;100.00;97868.38;5151968;27;19923;-59
2022/09/28 09:58:43;;;;;;;;;;;;;;;8.86;100.00;97869.16;5152114;27;19970;-57
2022/09/28 10:01:12;;;;;;;;;;;;;;;8.88;100.00;97864.13;5151972;27;19923;-58
2022/09/28 10:03:40;;;;;;;;;;;;;;;8.77;100.00;97863.31;5151900;27;19986;-58
2022/09/28 10:06:08;;;;;;;;;;;;;;;8.84;100.00;97857.84;5152115;27;19923;-56
2022/09/28 10:08:38;;;;;;;;;;;;;;;8.89;100.00;97852.00;5151766;27;19930;-59
2022/09/28 10:11:07;;;;;;;;;;;;;;;9.01;100.00;97870.03;5152074;27;19926;-57
2022/09/28 10:13:33;;;;;;;;;;;;;;;8.89;100.00;97869.19;5151947;27;20374;-58
2022/09/28 10:15:59;;;;;;;;;;;;;;;9.08;100.00;97883.72;5152282;27;19970;-58
2022/09/28 10:18:26;;;;;;;;;;;;;;;9.07;100.00;97877.47;5151771;27;19974;-57
2022/09/28 10:20:52;;;;;;;;;;;;;;;8.93;100.00;97858.28;5152090;27;19923;-62
2022/09/28 10:23:21;;;;;;;;;;;;;;;9.11;100.00;97836.47;5151562;27;19930;-60
2022/09/28 10:25:49;;;;;;;;;;;;;;;9.22;100.00;97855.63;5151781;27;19922;-61
2022/09/28 10:28:18;;;;;;;;;;;;;;;9.37;100.00;97868.94;5151713;27;20381;-56
2022/09/28 10:30:44;;;;;;;;;;;;;;;9.39;100.00;97874.00;5151684;27;20385;-58
2022/09/28 10:33:25;;;;;;;;;;;;;;;8.85;100.00;97895.72;5151688;27;20031;-56
2022/09/28 10:35:51;;;;;;;;;;;;;;;8.91;100.00;97849.69;5151394;27;19923;-58
2022/09/28 10:38:17;;;;;;;;;;;;;;;8.96;100.00;97857.50;5151594;27;19923;-58
2022/09/28 10:40:44;;;;;;;;;;;;;;;9.15;100.00;97832.56;5151530;27;19984;-58
2022/09/28 10:43:19;;;;;;;;;;;;;;;9.20;100.00;97845.06;5151947;27;19931;-61
2022/09/28 10:45:45;;;;;;;;;;;;;;;9.30;100.00;97857.22;5153931;27;19966;-59
2022/09/28 10:48:17;;;;;;;;;;;;;;;9.05;100.00;97863.38;5155436;27;19923;-58
2022/09/28 10:50:56;;;;;;;;;;;;;;;9.55;100.00;97868.16;5155214;27;19974;-58
2022/09/28 10:53:22;;;;;;;;;;;;;;;9.12;100.00;97898.16;5155060;27;20035;-57
2022/09/28 10:55:56;;;;;;;;;;;;;;;9.40;100.00;97886.53;5155181;27;20043;-57
2022/09/28 10:58:26;;;;;;;;;;;;;;;9.06;100.00;97894.22;5154935;27;19962;-58
2022/09/28 11:00:59;;;;;;;;;;;;;;;9.31;100.00;97889.63;5154981;27;19975;-61
2022/09/28 11:03:26;;;;;;;;;;;;;;;9.08;100.00;97889.16;5154924;27;20063;-58
2022/09/28 11:05:56;;;;;;;;;;;;;;;8.98;100.00;97879.00;5154904;27;20022;-59
2022/09/28 11:08:24;;;;;;;;;;;;;;;8.97;100.00;97872.75;5154647;27;19929;-56
2022/09/28 11:11:00;;;;;;;;;;;;;;;9.05;100.00;97893.47;5154797;27;19933;-56
2022/09/28 11:13:26;;;;;;;;;;;;;;;9.01;100.00;97878.22;5154910;27;20446;-59
2022/09/28 11:15:53;;;;;;;;;;;;;;;9.13;100.00;97877.84;5154626;27;19981;-58
2022/09/28 11:18:21;;;;;;;;;;;;;;;9.13;100.00;97875.91;5154861;27;19923;-55
2022/09/28 11:20:48;;;;;;;;;;;;;;;8.91;100.00;97880.53;5154575;27;19926;-59
2022/09/28 11:23:16;;;;;;;;;;;;;;;8.87;100.00;97851.63;5154979;27;19929;-55
2022/09/28 11:25:43;;;;;;;;;;;;;;;9.08;100.00;97832.53;5154489;27;19930;-58
2022/09/28 11:28:20;;;;;;;;;;;;;;;8.89;100.00;97839.13;5154607;27;19927;-60
2022/09/28 11:30:51;;;;;;;;;;;;;;;9.13;100.00;97842.31;5154433;27;19958;-59
2022/09/28 11:33:19;;;;;;;;;;;;;;;8.66;100.00;97830.44;5154353;27;19958;-58
2022/09/28 11:35:49;;;;;;;;;;;;;;;8.99;100.00;97801.28;5154608;27;19923;-62
2022/09/28 11:38:23;;;;;;;;;;;;;;;8.86;100.00;97815.31;5154340;27;19923;-59
2022/09/28 11:40:53;;;;;;;;;;;;;;;8.87;100.00;97805.94;5154568;27;19927;-57
2022/09/28 11:43:27;;;;;;;;;;;;;;;8.61;100.00;97811.72;5154103;27;19922;-57
2022/09/28 11:45:58;;;;;;;;;;;;;;;8.61;100.00;97760.59;5154687;27;19948;-61
2022/09/28 11:48:27;;;;;;;;;;;;;;;8.76;100.00;97757.88;5154282;27;19945;-60
2022/09/28 11:50:56;;;;;;;;;;;;;;;8.88;100.00;97777.44;5154373;27;19922;-60
2022/09/28 11:53:25;;;;;;;;;;;;;;;8.93;100.00;97768.88;5153834;27;19986;-61
2022/09/28 11:55:54;;;;;;;;;;;;;;;8.47;100.00;97771.47;5153591;27;19931;-63
2022/09/28 11:58:23;;;;;;;;;;;;;;;9.00;100.00;97759.91;5153987;27;20392;-65
2022/09/28 12:00:51;;;;;;;;;;;;;;;8.73;100.00;97762.19;5154303;27;20278;-61
2022/09/28 12:03:22;;;;;;;;;;;;;;;8.77;100.00;97754.00;5154153;27;19970;-62
2022/09/28 12:05:50;;;;;;;;;;;;;;;8.98;100.00;97739.59;5153924;27;19923;-65
2022/09/28 12:08:19;;;;;;;;;;;;;;;8.96;100.00;97748.16;5154407;27;20393;-63
2022/09/28 12:10:50;;;;;;;;;;;;;;;8.74;100.00;97747.34;5153897;27;20290;-65
2022/09/28 12:13:21;;;;;;;;;;;;;;;8.84;100.00;97738.41;5154185;27;19962;-62
2022/09/28 12:15:50;;;;;;;;;;;;;;;8.83;100.00;97744.22;5153704;27;19923;-66
2022/09/28 12:18:20;;;;;;;;;;;;;;;8.94;100.00;97751.28;5153969;27;19958;-59
2022/09/28 12:20:48;;;;;;;;;;;;;;;8.98;100.00;97745.81;5153882;27;20034;-54
2022/09/28 12:23:15;;;;;;;;;;;;;;;8.88;100.00;97744.63;5153636;27;19923;-58
2022/09/28 12:25:45;;;;;;;;;;;;;;;8.92;100.00;97739.97;5153874;27;19923;-61
2022/09/28 12:28:16;;;;;;;;;;;;;;;8.72;100.00;97741.47;5153461;27;19923;-61
2022/09/28 12:30:44;;;;;;;;;;;;;;;9.02;100.00;97718.50;5153871;27;19923;-61
2022/09/28 12:33:12;;;;;;;;;;;;;;;9.39;100.00;97721.59;5153382;27;19978;-60
2022/09/28 12:35:52;;;;;;;;;;;;;;;9.26;100.00;97745.06;5153824;27;19929;-60
2022/09/28 12:38:35;;;;;;;;;;;;;;;9.12;100.00;97762.25;5153440;27;19969;-61
2022/09/28 12:41:04;;;;;;;;;;;;;;;9.19;100.00;97756.00;5153538;27;19927;-61
2022/09/28 12:43:42;;;;;;;;;;;;;;;9.09;100.00;97768.47;5153684;27;19933;-60
2022/09/28 12:46:27;;;;;;;;;;;;;;;9.05;100.00;97762.22;5153353;27;19945;-60
2022/09/28 12:49:00;;;;;;;;;;;;;;;8.86;100.00;97755.19;5153511;27;19922;-60
2022/09/28 12:51:35;;;;;;;;;;;;;;;8.91;100.00;97740.34;5153069;27;19995;-59
2022/09/28 12:54:07;;;;;;;;;;;;;;;8.68;100.00;97737.97;5153203;27;19929;-60
2022/09/28 12:56:38;;;;;;;;;;;;;;;8.83;100.00;97722.38;5150932;27;20017;-60
2022/09/28 12:59:09;;;;;;;;;;;;;;;8.98;100.00;97721.22;5153323;27;19946;-61
2022/09/28 13:01:44;;;;;;;;;;;;;;;8.87;100.00;97734.09;5153357;27;19970;-60